createdAt,value
2019-04-21T00:00:37.399Z,14.33
2019-04-21T00:03:15.196Z,14.87
2019-04-21T00:05:58.879Z,14.40
2019-04-21T00:08:37.537Z,14.40
2019-04-21T00:11:05.815Z,14.87
2019-04-21T00:13:28.106Z,14.50
2019-04-21T00:15:53.245Z,14.63
2019-04-21T00:18:39.771Z,14.90
2019-04-21T00:21:13.823Z,15.23
2019-04-21T00:23:55.368Z,14.93
2019-04-21T00:26:24.235Z,15.10
2019-04-21T00:29:05.058Z,15.03
2019-04-21T00:31:24.850Z,14.67
2019-04-21T00:33:43.030Z,14.67
2019-04-21T00:36:18.138Z,14.17
2019-04-21T00:39:17.085Z,15.07
2019-04-21T00:41:36.705Z,14.30
2019-04-21T00:44:02.001Z,13.73
2019-04-21T00:46:33.732Z,14.37
2019-04-21T00:49:06.121Z,14.30
2019-04-21T00:52:00.282Z,14.13
2019-04-21T00:54:29.672Z,14.27
2019-04-21T00:56:59.158Z,14.50
2019-04-21T00:59:25.616Z,14.10
2019-04-21T01:01:55.410Z,15.70
2019-04-21T01:04:34.700Z,14.73
2019-04-21T01:07:03.021Z,14.67
2019-04-21T01:09:27.616Z,14.90
2019-04-21T01:12:01.312Z,15.53
2019-04-21T01:14:45.638Z,14.50
2019-04-21T01:17:11.146Z,15.27
2019-04-21T01:19:33.655Z,15.03
2019-04-21T01:21:47.468Z,15.10
2019-04-21T01:24:25.948Z,15.17
2019-04-21T01:27:02.268Z,14.80
2019-04-21T01:29:41.504Z,15.23
2019-04-21T01:32:19.123Z,16.20
2019-04-21T01:34:45.119Z,16.13
2019-04-21T01:37:10.202Z,15.50
2019-04-21T01:39:47.948Z,15.30
2019-04-21T01:42:15.734Z,15.73
2019-04-21T01:44:48.437Z,15.17
2019-04-21T01:47:17.449Z,15.93
2019-04-21T01:49:43.129Z,14.70
2019-04-21T01:52:34.987Z,15.90
2019-04-21T01:55:12.739Z,16.13
2019-04-21T01:57:59.371Z,16.20
2019-04-21T02:00:39.108Z,15.57
2019-04-21T02:03:34.470Z,17.47
2019-04-21T02:05:56.995Z,16.47
2019-04-21T02:08:20.381Z,16.33
2019-04-21T02:10:58.278Z,16.33
2019-04-21T02:13:18.787Z,17.27
2019-04-21T02:15:55.816Z,15.67
2019-04-21T02:18:23.035Z,16.33
2019-04-21T02:20:47.708Z,16.40
2019-04-21T02:23:34.600Z,16.33
2019-04-21T02:25:58.780Z,17.23
2019-04-21T02:28:38.407Z,17.13
2019-04-21T02:33:50.373Z,16.90
2019-04-21T02:39:06.229Z,15.83
2019-04-21T02:41:13.014Z,16.60
2019-04-21T02:43:52.368Z,17.23
2019-04-21T02:46:27.413Z,18.23
2019-04-21T02:48:55.463Z,17.50
2019-04-21T02:51:27.820Z,17.63
2019-04-21T02:56:48.685Z,17.20
2019-04-21T02:59:06.914Z,16.93
2019-04-21T03:01:50.537Z,17.37
2019-04-21T03:04:46.687Z,16.67
2019-04-21T03:07:25.004Z,17.40
2019-04-21T03:09:52.121Z,17.13
2019-04-21T03:12:22.698Z,18.50
2019-04-21T03:33:29.738Z,19.40
2019-04-21T03:35:43.979Z,19.20
2019-04-21T03:40:16.713Z,18.90
2019-04-21T03:45:25.340Z,20.20
2019-04-21T03:50:29.710Z,19.40
2019-04-21T03:56:42.381Z,20.67
2019-04-21T04:01:02.926Z,20.00
2019-04-21T04:09:09.665Z,20.57
2019-04-21T04:11:39.793Z,20.80
2019-04-21T04:14:22.905Z,20.87
2019-04-21T04:16:37.223Z,20.20
2019-04-21T04:19:05.874Z,20.83
2019-04-21T04:21:47.728Z,21.20
2019-04-21T04:24:16.981Z,21.40
2019-04-21T04:34:22.658Z,20.00
2019-04-21T04:42:39.223Z,20.67
2019-04-21T04:49:53.526Z,21.43
2019-04-21T04:57:42.816Z,21.40
2019-04-21T05:00:14.878Z,21.30
2019-04-21T05:07:43.044Z,22.03
2019-04-21T05:10:29.534Z,21.97
2019-04-21T05:12:38.536Z,21.67
2019-04-21T05:15:10.089Z,21.47
2019-04-21T05:22:47.397Z,20.27
2019-04-21T05:25:06.961Z,20.77
2019-04-21T05:27:39.947Z,21.23
2019-04-21T05:30:22.081Z,21.93
2019-04-21T05:33:19.087Z,22.03
2019-04-21T05:36:01.878Z,21.60
2019-04-21T05:38:33.379Z,20.83
2019-04-21T05:41:02.427Z,21.07
2019-04-21T05:43:39.112Z,20.73
2019-04-21T05:46:15.621Z,21.10
2019-04-21T05:48:46.927Z,21.70
2019-04-21T05:51:14.895Z,20.50
2019-04-21T05:53:55.732Z,20.27
2019-04-21T05:56:25.702Z,19.65
2019-04-21T05:58:48.468Z,18.52
2019-04-21T06:04:03.988Z,19.90
2019-04-21T06:09:00.938Z,19.15
2019-04-21T06:11:30.914Z,19.48
2019-04-21T06:14:21.696Z,20.12
2019-04-21T06:16:40.466Z,21.33
2019-04-21T06:19:05.162Z,20.70
2019-04-21T06:21:35.958Z,19.98
2019-04-21T06:24:13.095Z,20.08
2019-04-21T06:26:53.755Z,19.42
2019-04-21T06:29:09.091Z,20.88
2019-04-21T06:32:16.338Z,20.40
2019-04-21T06:34:16.648Z,20.68
2019-04-21T06:37:34.524Z,20.20
2019-04-21T06:40:01.948Z,19.80
2019-04-21T06:42:16.198Z,20.72
2019-04-21T06:44:59.678Z,19.45
2019-04-21T06:49:50.164Z,19.75
2019-04-21T06:55:03.552Z,18.67
2019-04-21T06:57:29.630Z,18.87
2019-04-21T06:59:58.709Z,18.27
2019-04-21T07:05:07.849Z,17.98
2019-04-21T07:07:41.856Z,17.70
2019-04-21T07:10:22.524Z,17.85
2019-04-21T07:12:34.333Z,17.60
2019-04-21T07:15:28.490Z,17.67
2019-04-21T07:17:38.833Z,17.70
2019-04-21T07:20:15.889Z,16.27
2019-04-21T07:22:42.439Z,16.48
2019-04-21T07:25:13.891Z,16.95
2019-04-21T07:27:46.614Z,16.62
2019-04-21T07:30:21.157Z,17.00
2019-04-21T07:32:56.618Z,17.02
2019-04-21T07:35:23.177Z,15.20
2019-04-21T07:37:54.083Z,14.53
2019-04-21T07:40:13.450Z,15.43
2019-04-21T07:42:47.849Z,15.13
2019-04-21T07:45:19.214Z,14.78
2019-04-21T07:48:04.203Z,15.23
2019-04-21T07:51:04.045Z,15.32
2019-04-21T07:53:51.028Z,14.75
2019-04-21T07:55:59.483Z,14.28
2019-04-21T07:58:56.347Z,15.15
2019-04-21T08:03:56.996Z,14.25
2019-04-21T08:06:31.421Z,15.15
2019-04-21T08:08:53.061Z,14.53
2019-04-21T08:11:20.446Z,14.47
2019-04-21T08:13:56.162Z,14.83
2019-04-21T08:16:35.295Z,15.03
2019-04-21T08:18:59.460Z,13.62
2019-04-21T08:21:36.904Z,14.47
2019-04-21T08:24:04.747Z,13.70
2019-04-21T08:26:38.333Z,12.45
2019-04-21T08:29:15.908Z,12.40
2019-04-21T08:31:38.286Z,11.80
2019-04-21T08:36:35.327Z,12.28
2019-04-21T08:39:12.991Z,12.65
2019-04-21T08:41:46.882Z,11.48
2019-04-21T08:44:14.063Z,12.43
2019-04-21T08:46:48.774Z,10.45
2019-04-21T08:49:22.192Z,11.88
2019-04-21T08:51:57.169Z,11.25
2019-04-21T08:54:27.584Z,11.35
2019-04-21T08:57:08.081Z,11.40
2019-04-21T08:59:58.857Z,11.38
2019-04-21T09:02:46.675Z,12.25
2019-04-21T09:05:17.578Z,11.00
2019-04-21T09:08:06.720Z,11.18
2019-04-21T09:10:35.421Z,11.08
2019-04-21T09:13:04.509Z,12.33
2019-04-21T09:15:36.392Z,9.50
2019-04-21T09:18:05.388Z,11.53
2019-04-21T09:20:46.113Z,10.40
2019-04-21T09:23:16.263Z,11.85
2019-04-21T09:25:46.175Z,10.65
2019-04-21T09:28:12.618Z,11.88
2019-04-21T09:30:36.730Z,12.33
2019-04-21T09:33:00.528Z,11.65
2019-04-21T09:35:31.535Z,11.65
2019-04-21T09:38:13.332Z,11.38
2019-04-21T09:40:37.284Z,10.35
2019-04-21T09:43:08.512Z,10.48
2019-04-21T09:45:37.455Z,10.72
2019-04-21T09:48:12.412Z,10.50
2019-04-21T09:50:39.802Z,10.70
2019-04-21T09:53:20.989Z,9.23
2019-04-21T09:55:48.762Z,10.28
2019-04-21T09:58:24.299Z,9.00
2019-04-21T10:01:00.138Z,10.58
2019-04-21T10:03:19.103Z,9.85
2019-04-21T10:05:48.068Z,9.73
2019-04-21T10:08:18.782Z,9.00
2019-04-21T10:10:49.090Z,8.65
2019-04-21T10:13:19.235Z,8.20
2019-04-21T10:15:59.301Z,7.50
2019-04-21T10:18:29.903Z,9.00
2019-04-21T10:20:59.640Z,8.30
2019-04-21T10:23:29.704Z,8.75
2019-04-21T10:26:00.582Z,7.42
2019-04-21T10:28:31.020Z,8.13
2019-04-21T10:31:00.890Z,8.23
2019-04-21T10:33:30.561Z,8.40
2019-04-21T10:36:01.273Z,7.37
2019-04-21T10:38:40.127Z,7.58
2019-04-21T10:41:03.478Z,7.40
2019-04-21T10:43:35.601Z,8.00
2019-04-21T10:46:06.563Z,8.18
2019-04-21T10:48:37.875Z,8.25
2019-04-21T10:51:08.042Z,8.28
2019-04-21T10:53:40.812Z,8.48
2019-04-21T10:56:20.178Z,8.25
2019-04-21T10:58:44.746Z,8.60
2019-04-21T11:01:16.842Z,8.40
2019-04-21T11:03:58.513Z,8.85
2019-04-21T11:06:30.827Z,7.55
2019-04-21T11:09:01.975Z,8.03
2019-04-21T11:11:34.118Z,8.53
2019-04-21T11:14:04.417Z,8.10
2019-04-21T11:16:35.570Z,7.80
2019-04-21T11:19:06.299Z,7.08
2019-04-21T11:21:36.680Z,7.58
2019-04-21T11:24:08.069Z,8.38
2019-04-21T11:26:37.964Z,8.18
2019-04-21T11:29:07.681Z,7.65
2019-04-21T11:31:38.845Z,7.60
2019-04-21T11:34:09.250Z,7.53
2019-04-21T11:36:40.383Z,8.08
2019-04-21T11:39:31.635Z,7.40
2019-04-21T11:41:52.357Z,7.87
2019-04-21T11:44:24.653Z,8.23
2019-04-21T11:46:54.406Z,7.72
2019-04-21T11:49:27.637Z,8.70
2019-04-21T11:51:57.023Z,7.70
2019-04-21T11:54:27.220Z,8.10
2019-04-21T11:56:57.101Z,7.92
2019-04-21T11:59:27.960Z,7.47
2019-04-21T12:01:59.290Z,7.17
2019-04-21T12:04:29.534Z,7.47
2019-04-21T12:06:59.897Z,7.20
2019-04-21T12:09:30.044Z,7.15
2019-04-21T12:12:01.134Z,6.85
2019-04-21T12:14:32.103Z,7.75
2019-04-21T12:17:02.659Z,8.18
2019-04-21T12:19:32.613Z,6.53
2019-04-21T12:22:11.005Z,7.03
2019-04-21T12:24:36.836Z,7.25
2019-04-21T12:27:07.793Z,7.58
2019-04-21T12:29:37.850Z,7.78
2019-04-21T12:32:36.069Z,6.83
2019-04-21T12:35:08.209Z,6.45
2019-04-21T12:37:38.280Z,6.70
2019-04-21T12:40:08.519Z,6.55
2019-04-21T12:42:41.723Z,6.70
2019-04-21T12:45:11.496Z,7.08
2019-04-21T12:47:41.918Z,6.28
2019-04-21T12:50:12.886Z,6.67
2019-04-21T12:52:42.772Z,6.62
2019-04-21T12:55:13.524Z,6.12
2019-04-21T12:57:43.604Z,6.72
2019-04-21T13:00:15.751Z,6.95
2019-04-21T13:02:45.609Z,6.90
2019-04-21T13:05:15.809Z,6.72
2019-04-21T13:07:47.173Z,6.60
2019-04-21T13:10:18.145Z,6.60
2019-04-21T13:12:48.432Z,6.83
2019-04-21T13:15:19.870Z,6.72
2019-04-21T13:17:50.221Z,6.90
2019-04-21T13:20:21.066Z,7.42
2019-04-21T13:22:52.274Z,6.72
2019-04-21T13:25:23.595Z,6.22
2019-04-21T13:27:54.474Z,6.65
2019-04-21T13:30:26.304Z,6.62
2019-04-21T13:32:58.622Z,7.00
2019-04-21T13:35:28.924Z,6.15
2019-04-21T13:38:00.559Z,7.30
2019-04-21T13:41:02.134Z,6.62
2019-04-21T13:43:20.933Z,7.50
2019-04-21T13:45:51.802Z,6.92
2019-04-21T13:48:22.368Z,7.95
2019-04-21T13:50:53.435Z,7.40
2019-04-21T13:53:24.892Z,6.55
2019-04-21T13:55:56.315Z,6.80
2019-04-21T13:58:26.410Z,7.30
2019-04-21T14:00:57.990Z,7.22
2019-04-21T14:03:29.144Z,6.72
2019-04-21T14:06:00.289Z,6.95
2019-04-21T14:08:49.138Z,6.80
2019-04-21T14:11:19.829Z,7.22
2019-04-21T14:13:50.418Z,7.12
2019-04-21T14:16:22.167Z,7.20
2019-04-21T14:18:52.059Z,7.42
2019-04-21T14:21:23.112Z,6.85
2019-04-21T14:23:54.264Z,7.08
2019-04-21T14:26:24.460Z,6.80
2019-04-21T14:28:54.706Z,7.20
2019-04-21T14:31:26.245Z,7.08
2019-04-21T14:33:56.465Z,6.92
2019-04-21T14:36:26.571Z,7.33
2019-04-21T14:38:56.723Z,6.67
2019-04-21T14:41:26.453Z,6.45
2019-04-21T14:43:56.907Z,7.37
2019-04-21T14:46:35.325Z,7.12
2019-04-21T14:49:15.131Z,6.60
2019-04-21T14:52:10.749Z,6.70
2019-04-21T14:54:48.965Z,6.78
2019-04-21T14:57:18.976Z,7.37
2019-04-21T14:59:49.038Z,6.40
2019-04-21T15:02:20.154Z,6.00
2019-04-21T15:04:51.509Z,6.55
2019-04-21T15:07:23.443Z,6.92
2019-04-21T15:10:03.586Z,6.47
2019-04-21T15:12:25.816Z,6.89
2019-04-21T15:14:55.990Z,6.60
2019-04-21T15:17:27.500Z,6.78
2019-04-21T15:20:02.881Z,7.10
2019-04-21T15:22:28.554Z,6.65
2019-04-21T15:24:58.557Z,6.58
2019-04-21T15:27:28.298Z,6.65
2019-04-21T15:29:58.501Z,6.90
2019-04-21T15:32:28.492Z,6.90
2019-04-21T15:34:58.415Z,7.40
2019-04-21T15:37:28.260Z,7.22
2019-04-21T15:39:58.537Z,7.03
2019-04-21T15:42:30.663Z,6.45
2019-04-21T15:45:00.925Z,6.30
2019-04-21T15:47:31.823Z,7.62
2019-04-21T15:50:07.472Z,6.80
2019-04-21T15:52:33.839Z,6.60
2019-04-21T15:55:08.897Z,6.03
2019-04-21T15:57:56.570Z,6.80
2019-04-21T16:00:46.823Z,6.72
2019-04-21T16:03:16.614Z,6.67
2019-04-21T16:05:46.744Z,7.15
2019-04-21T16:08:16.637Z,6.85
2019-04-21T16:10:52.641Z,7.25
2019-04-21T16:13:19.257Z,7.15
2019-04-21T16:15:50.458Z,7.15
2019-04-21T16:18:20.536Z,6.85
2019-04-21T16:20:51.629Z,6.42
2019-04-21T16:23:22.517Z,6.55
2019-04-21T16:25:52.715Z,6.25
2019-04-21T16:28:23.500Z,6.62
2019-04-21T16:30:54.356Z,6.87
2019-04-21T16:33:25.145Z,7.22
2019-04-21T16:35:55.952Z,6.78
2019-04-21T16:38:25.869Z,9.73
2019-04-21T16:40:59.762Z,11.48
2019-04-21T16:43:27.104Z,9.48
2019-04-21T16:45:57.143Z,7.50
2019-04-21T16:48:27.374Z,7.00
2019-04-21T16:50:57.527Z,6.65
2019-04-21T16:53:37.760Z,6.65
2019-04-21T16:56:27.372Z,7.05
2019-04-21T16:59:02.915Z,6.95
2019-04-21T17:01:34.192Z,6.35
2019-04-21T17:04:04.562Z,7.25
2019-04-21T17:06:35.302Z,7.28
2019-04-21T17:09:06.172Z,8.53
2019-04-21T17:11:38.039Z,7.33
2019-04-21T17:14:30.100Z,7.30
2019-04-21T17:17:04.674Z,7.20
2019-04-21T17:19:19.149Z,7.22
2019-04-21T17:21:43.710Z,6.87
2019-04-21T17:24:14.570Z,7.20
2019-04-21T17:26:46.032Z,6.42
2019-04-21T17:29:16.827Z,7.42
2019-04-21T17:31:47.739Z,6.78
2019-04-21T17:34:21.624Z,6.25
2019-04-21T17:36:50.815Z,6.87
2019-04-21T17:39:20.866Z,6.58
2019-04-21T17:42:05.267Z,6.30
2019-04-21T17:44:23.490Z,6.12
2019-04-21T17:46:58.591Z,5.67
2019-04-21T17:49:25.231Z,6.25
2019-04-21T17:52:16.319Z,6.10
2019-04-21T17:54:50.666Z,5.92
2019-04-21T17:57:36.847Z,6.37
2019-04-21T18:00:14.128Z,6.53
2019-04-21T18:02:42.947Z,6.00
2019-04-21T18:05:17.979Z,6.25
2019-04-21T18:07:50.147Z,6.28
2019-04-21T18:10:11.567Z,5.65
2019-04-21T18:12:39.991Z,10.60
2019-04-21T18:15:16.322Z,12.85
2019-04-21T18:17:28.804Z,11.10
2019-04-21T18:19:59.717Z,8.70
2019-04-21T18:22:59.044Z,7.37
2019-04-21T18:25:43.859Z,6.67
2019-04-21T18:28:01.196Z,6.45
2019-04-21T18:30:46.615Z,6.53
2019-04-21T18:33:22.279Z,6.60
2019-04-21T18:36:20.340Z,6.60
2019-04-21T18:39:33.639Z,6.83
2019-04-21T18:42:18.618Z,6.60
2019-04-21T18:45:28.066Z,7.15
2019-04-21T18:48:03.858Z,6.28
2019-04-21T18:51:04.033Z,6.30
2019-04-21T18:53:52.213Z,6.42
2019-04-21T18:56:16.725Z,6.12
2019-04-21T18:58:44.602Z,6.58
2019-04-21T19:01:20.904Z,6.33
2019-04-21T19:03:50.066Z,6.72
2019-04-21T19:06:25.533Z,6.80
2019-04-21T19:09:11.762Z,6.60
2019-04-21T19:11:35.961Z,6.87
2019-04-21T19:14:29.052Z,7.03
2019-04-21T19:16:59.072Z,7.58
2019-04-21T19:19:46.778Z,7.50
2019-04-21T19:21:58.716Z,7.15
2019-04-21T19:26:59.138Z,7.00
2019-04-21T19:29:29.370Z,7.75
2019-04-21T19:32:15.019Z,6.97
2019-04-21T19:34:20.614Z,7.25
2019-04-21T19:36:51.290Z,7.10
2019-04-21T19:39:32.742Z,7.05
2019-04-21T19:41:59.662Z,7.17
2019-04-21T19:44:33.618Z,7.42
2019-04-21T19:47:13.753Z,6.72
2019-04-21T19:49:45.563Z,7.10
2019-04-21T19:51:59.558Z,7.12
2019-04-21T19:54:33.450Z,6.28
2019-04-21T19:56:55.563Z,7.10
2019-04-21T19:59:34.632Z,7.00
2019-04-21T20:01:58.327Z,7.25
2019-04-21T20:04:34.449Z,7.42
2019-04-21T20:07:10.319Z,7.30
2019-04-21T20:09:46.421Z,7.05
2019-04-21T20:12:23.845Z,7.22
2019-04-21T20:14:55.456Z,7.20
2019-04-21T20:17:18.983Z,7.22
2019-04-21T20:19:38.383Z,7.17
2019-04-21T20:22:09.342Z,7.00
2019-04-21T20:24:40.012Z,7.08
2019-04-21T20:27:17.662Z,7.47
2019-04-21T20:29:56.840Z,7.80
2019-04-21T20:32:30.654Z,7.08
2019-04-21T20:35:10.899Z,7.30
2019-04-21T20:37:34.532Z,6.92
2019-04-21T20:39:54.962Z,7.28
2019-04-21T20:42:29.373Z,7.97
2019-04-21T20:45:27.177Z,8.25
2019-04-21T20:47:32.161Z,7.85
2019-04-21T20:50:09.438Z,7.70
2019-04-21T20:52:52.452Z,9.03
2019-04-21T20:55:04.824Z,8.20
2019-04-21T20:57:44.944Z,9.43
2019-04-21T21:00:21.785Z,8.88
2019-04-21T21:02:51.667Z,8.85
2019-04-21T21:05:19.040Z,8.55
2019-04-21T21:07:56.983Z,8.48
2019-04-21T21:10:20.453Z,8.33
2019-04-21T21:13:14.617Z,8.63
2019-04-21T21:15:35.963Z,8.55
2019-04-21T21:18:16.849Z,9.18
2019-04-21T21:20:35.776Z,8.70
2019-04-21T21:23:02.920Z,8.48
2019-04-21T21:25:49.661Z,8.58
2019-04-21T21:28:04.292Z,8.83
2019-04-21T21:30:41.788Z,8.40
2019-04-21T21:33:17.241Z,8.23
2019-04-21T21:35:41.504Z,9.00
2019-04-21T21:38:19.946Z,8.73
2019-04-21T21:40:46.565Z,8.85
2019-04-21T21:43:08.261Z,8.77
2019-04-21T21:45:45.119Z,9.43
2019-04-21T21:48:26.414Z,9.37
2019-04-21T21:50:49.173Z,9.67
2019-04-21T21:53:16.196Z,9.60
2019-04-21T21:55:44.702Z,9.70
2019-04-21T21:58:19.355Z,9.75
2019-04-21T22:00:49.840Z,10.00
2019-04-21T22:03:27.439Z,10.03
2019-04-21T22:05:59.806Z,9.30
2019-04-21T22:08:22.575Z,10.20
2019-04-21T22:10:52.874Z,10.93
2019-04-21T22:13:32.769Z,10.13
2019-04-21T22:15:56.714Z,9.57
2019-04-21T22:18:40.991Z,9.23
2019-04-21T22:21:11.370Z,9.50
2019-04-21T22:23:39.904Z,9.80
2019-04-21T22:26:01.143Z,10.47
2019-04-21T22:28:31.598Z,9.37
2019-04-21T22:31:05.570Z,9.63
2019-04-21T22:33:43.768Z,10.33
2019-04-21T22:36:17.930Z,10.23
2019-04-21T22:38:48.542Z,10.30
2019-04-21T22:41:19.265Z,9.97
2019-04-21T22:43:43.813Z,9.73
2019-04-21T22:46:12.369Z,10.37
2019-04-21T22:48:44.562Z,10.77
2019-04-21T22:51:20.603Z,10.13
2019-04-21T22:53:48.809Z,10.70
2019-04-21T22:56:23.871Z,10.20
2019-04-21T22:58:48.279Z,10.40
2019-04-21T23:01:27.745Z,11.10
2019-04-21T23:03:55.506Z,11.13
2019-04-21T23:06:26.863Z,11.20
2019-04-21T23:08:55.001Z,10.73
2019-04-21T23:11:28.025Z,11.73
2019-04-21T23:14:04.030Z,11.50
2019-04-21T23:16:33.732Z,11.63
2019-04-21T23:19:21.991Z,11.40
2019-04-21T23:21:55.388Z,11.33
2019-04-21T23:24:26.459Z,12.20
2019-04-21T23:26:48.607Z,12.40
2019-04-21T23:29:31.078Z,12.70
2019-04-21T23:31:57.957Z,12.30
2019-04-21T23:34:17.767Z,11.87
2019-04-21T23:36:52.298Z,11.50
2019-04-21T23:39:21.026Z,12.07
2019-04-21T23:41:47.890Z,10.97
2019-04-21T23:44:18.813Z,11.97
2019-04-21T23:46:54.863Z,11.13
2019-04-21T23:49:34.325Z,10.93
2019-04-21T23:51:59.295Z,11.37
2019-04-21T23:54:23.141Z,10.63
2019-04-21T23:56:53.884Z,10.77
2019-04-21T23:59:24.830Z,10.87
